createdAt,value
2018-01-25T00:00:00.626Z,792.75
2018-01-25T00:00:04.830Z,792.75
2018-01-25T00:00:08.936Z,792.76
2018-01-25T00:00:12.928Z,792.76
2018-01-25T00:00:16.719Z,792.8
2018-01-25T00:00:20.716Z,792.8
2018-01-25T00:00:24.830Z,792.77
2018-01-25T00:00:28.622Z,792.8
2018-01-25T00:00:32.724Z,792.81
2018-01-25T00:00:36.623Z,792.87
2018-01-25T00:00:40.526Z,792.87
2018-01-25T00:00:44.421Z,792.84
2018-01-25T00:00:48.421Z,792.85
2018-01-25T00:00:52.423Z,792.86
2018-01-25T00:00:56.106Z,792.88
2018-01-25T00:00:59.906Z,792.89
2018-01-25T00:01:03.640Z,792.87
2018-01-25T00:01:07.531Z,792.9
2018-01-25T00:01:11.221Z,792.9
2018-01-25T00:01:15.222Z,792.89
2018-01-25T00:01:19.218Z,792.91
2018-01-25T00:01:23.218Z,792.94
2018-01-25T00:01:27.219Z,792.91
2018-01-25T00:01:31.327Z,792.96
2018-01-25T00:01:35.437Z,792.96
2018-01-25T00:01:39.541Z,792.95
2018-01-25T00:01:43.541Z,792.98
2018-01-25T00:01:47.438Z,792.97
2018-01-25T00:01:51.332Z,792.98
2018-01-25T00:01:55.326Z,792.95
2018-01-25T00:01:59.223Z,792.99
2018-01-25T00:02:03.121Z,792.97
2018-01-25T00:02:07.014Z,793
2018-01-25T00:02:10.904Z,793
2018-01-25T00:02:14.802Z,793.02
2018-01-25T00:02:18.720Z,793.04
2018-01-25T00:02:22.611Z,793.03
2018-01-25T00:02:26.621Z,793.01
2018-01-25T00:02:30.510Z,793.06
2018-01-25T00:02:34.571Z,793.07
2018-01-25T00:02:38.357Z,793.04
2018-01-25T00:02:42.255Z,793.06
2018-01-25T00:02:46.153Z,793.09
2018-01-25T00:02:50.148Z,793.09
2018-01-25T00:02:53.936Z,793.07
2018-01-25T00:02:57.930Z,793.11
2018-01-25T00:03:01.725Z,793.12
2018-01-25T00:03:05.828Z,793.11
2018-01-25T00:03:09.730Z,793.13
2018-01-25T00:03:13.974Z,793.06
2018-01-25T00:03:18.306Z,793.14
2018-01-25T00:03:22.205Z,793.15
2018-01-25T00:03:25.993Z,793.18
2018-01-25T00:03:29.886Z,793.14
2018-01-25T00:03:33.889Z,793.22
2018-01-25T00:03:37.578Z,793.15
2018-01-25T00:03:41.466Z,793.17
2018-01-25T00:03:45.251Z,793.15
2018-01-25T00:03:49.295Z,793.18
2018-01-25T00:03:53.098Z,793.21
2018-01-25T00:03:57.095Z,793.2
2018-01-25T00:04:00.776Z,793.23
2018-01-25T00:04:04.673Z,793.21
2018-01-25T00:04:08.468Z,793.24
2018-01-25T00:04:12.255Z,793.21
2018-01-25T00:04:16.141Z,793.25
2018-01-25T00:04:20.036Z,793.25
2018-01-25T00:04:24.033Z,793.3
2018-01-25T00:04:27.984Z,793.31
2018-01-25T00:04:31.775Z,793.27
2018-01-25T00:04:35.679Z,793.28
2018-01-25T00:04:39.575Z,793.28
2018-01-25T00:04:43.574Z,793.31
2018-01-25T00:04:47.575Z,793.3
2018-01-25T00:04:51.570Z,793.32
2018-01-25T00:04:55.360Z,793.31
2018-01-25T00:04:59.044Z,793.34
2018-01-25T00:05:03.048Z,793.35
2018-01-25T00:05:06.730Z,793.35
2018-01-25T00:05:10.729Z,793.33
2018-01-25T00:05:14.512Z,793.36
2018-01-25T00:05:18.295Z,793.36
2018-01-25T00:05:22.187Z,793.37
2018-01-25T00:05:26.076Z,793.4
2018-01-25T00:05:30.181Z,793.39
2018-01-25T00:05:34.187Z,793.4
2018-01-25T00:05:37.973Z,793.39
2018-01-25T00:05:41.977Z,793.4
2018-01-25T00:05:46.080Z,793.38
2018-01-25T00:05:50.288Z,793.43
2018-01-25T00:05:54.189Z,793.39
2018-01-25T00:05:58.293Z,793.45
2018-01-25T00:06:02.599Z,793.39
2018-01-25T00:06:06.596Z,793.43
2018-01-25T00:06:10.394Z,793.47
2018-01-25T00:06:14.282Z,793.48
2018-01-25T00:06:18.381Z,793.47
2018-01-25T00:06:22.486Z,793.49
2018-01-25T00:06:26.383Z,793.5
2018-01-25T00:06:30.382Z,793.48
2018-01-25T00:06:34.383Z,793.51
2018-01-25T00:06:38.064Z,793.52
2018-01-25T00:06:42.084Z,793.5
2018-01-25T00:06:46.189Z,793.54
2018-01-25T00:06:50.189Z,793.54
2018-01-25T00:06:54.192Z,793.54
2018-01-25T00:06:58.187Z,793.56
2018-01-25T00:07:02.587Z,793.55
2018-01-25T00:07:06.585Z,793.58
2018-01-25T00:07:10.693Z,793.6
2018-01-25T00:07:14.491Z,793.53
2018-01-25T00:07:18.483Z,793.57
2018-01-25T00:07:22.377Z,793.59
2018-01-25T00:07:26.270Z,793.57
2018-01-25T00:07:29.956Z,793.6
2018-01-25T00:07:33.745Z,793.61
2018-01-25T00:07:37.641Z,793.65
2018-01-25T00:07:41.639Z,793.64
2018-01-25T00:07:45.434Z,793.63
2018-01-25T00:07:49.434Z,793.65
2018-01-25T00:07:53.328Z,793.68
2018-01-25T00:07:57.342Z,793.67
2018-01-25T00:08:01.244Z,793.68
2018-01-25T00:08:05.543Z,793.69
2018-01-25T00:08:09.337Z,793.66
2018-01-25T00:08:13.552Z,793.72
2018-01-25T00:08:17.553Z,793.69
2018-01-25T00:08:21.557Z,793.72
2018-01-25T00:08:25.775Z,793.72
2018-01-25T00:08:29.880Z,793.71
2018-01-25T00:08:33.664Z,793.73
2018-01-25T00:08:37.451Z,793.74
2018-01-25T00:08:41.449Z,793.77
2018-01-25T00:08:45.242Z,793.75
2018-01-25T00:08:49.455Z,793.78
2018-01-25T00:08:53.245Z,793.75
2018-01-25T00:08:57.035Z,793.78
2018-01-25T00:09:00.930Z,793.79
2018-01-25T00:09:05.038Z,793.76
2018-01-25T00:09:09.039Z,793.79
2018-01-25T00:09:12.831Z,793.79
2018-01-25T00:09:16.833Z,793.77
2018-01-25T00:09:20.887Z,793.82
2018-01-25T00:09:24.949Z,793.82
2018-01-25T00:09:29.060Z,793.75
2018-01-25T00:09:32.952Z,793.81
2018-01-25T00:09:36.634Z,793.79
2018-01-25T00:09:40.530Z,793.79
2018-01-25T00:09:44.633Z,793.8
2018-01-25T00:09:48.629Z,793.83
2018-01-25T00:09:52.636Z,793.85
2018-01-25T00:09:56.533Z,793.81
2018-01-25T00:10:00.316Z,793.81
2018-01-25T00:10:04.730Z,793.82
2018-01-25T00:10:08.618Z,793.86
2018-01-25T00:10:12.718Z,793.89
2018-01-25T00:10:16.821Z,793.87
2018-01-25T00:10:20.828Z,793.91
2018-01-25T00:10:24.624Z,793.91
2018-01-25T00:10:28.417Z,793.91
2018-01-25T00:10:32.325Z,793.91
2018-01-25T00:10:36.315Z,793.92
2018-01-25T00:10:40.206Z,793.88
2018-01-25T00:10:44.093Z,793.89
2018-01-25T00:10:47.887Z,793.9
2018-01-25T00:10:51.885Z,793.88
2018-01-25T00:10:55.990Z,793.88
2018-01-25T00:10:59.887Z,793.87
2018-01-25T00:11:03.834Z,793.92
2018-01-25T00:11:07.937Z,793.93
2018-01-25T00:11:11.839Z,793.93
2018-01-25T00:11:15.839Z,793.92
2018-01-25T00:11:19.738Z,793.94
2018-01-25T00:11:23.941Z,793.97
2018-01-25T00:11:27.945Z,793.94
2018-01-25T00:11:31.948Z,793.94
2018-01-25T00:11:36.058Z,793.96
2018-01-25T00:11:39.846Z,793.97
2018-01-25T00:11:43.956Z,793.96
2018-01-25T00:11:48.062Z,793.95
2018-01-25T00:11:51.958Z,793.96
2018-01-25T00:11:55.962Z,793.93
2018-01-25T00:11:59.858Z,793.96
2018-01-25T00:12:03.544Z,793.98
2018-01-25T00:12:07.545Z,793.96
2018-01-25T00:12:11.551Z,793.99
2018-01-25T00:12:15.237Z,793.97
2018-01-25T00:12:18.923Z,793.99
2018-01-25T00:12:22.826Z,793.99
2018-01-25T00:12:26.936Z,793.98
2018-01-25T00:12:30.944Z,793.98
2018-01-25T00:12:34.942Z,793.98
2018-01-25T00:12:39.047Z,793.99
2018-01-25T00:12:43.047Z,793.95
2018-01-25T00:12:46.936Z,793.92
2018-01-25T00:12:50.938Z,793.95
2018-01-25T00:12:54.943Z,793.97
2018-01-25T00:12:58.629Z,793.99
2018-01-25T00:13:02.654Z,794
2018-01-25T00:13:06.757Z,793.97
2018-01-25T00:13:10.860Z,793.98
2018-01-25T00:13:14.915Z,793.98
2018-01-25T00:13:18.699Z,793.99
2018-01-25T00:13:22.803Z,794
2018-01-25T00:13:26.809Z,794
2018-01-25T00:13:30.595Z,794.03
2018-01-25T00:13:34.591Z,793.97
2018-01-25T00:13:38.383Z,794.01
2018-01-25T00:13:42.065Z,794.02
2018-01-25T00:13:46.163Z,794.04
2018-01-25T00:13:50.161Z,793.99
2018-01-25T00:13:54.264Z,793.99
2018-01-25T00:13:58.429Z,794.01
2018-01-25T00:14:02.528Z,794
2018-01-25T00:14:06.532Z,794.01
2018-01-25T00:14:10.217Z,794.01
2018-01-25T00:14:14.008Z,794.02
2018-01-25T00:14:17.796Z,794.02
2018-01-25T00:14:21.478Z,794.01
2018-01-25T00:14:25.370Z,794.03
2018-01-25T00:14:29.268Z,794.02
2018-01-25T00:14:33.166Z,794.05
2018-01-25T00:14:36.955Z,794.04
2018-01-25T00:14:40.743Z,794.01
2018-01-25T00:14:44.848Z,794
2018-01-25T00:14:49.056Z,794.05
2018-01-25T00:14:52.843Z,794.03
2018-01-25T00:14:56.631Z,794.02
2018-01-25T00:15:00.951Z,794.04
2018-01-25T00:15:05.228Z,794.03
2018-01-25T00:15:09.020Z,794.02
2018-01-25T00:15:12.915Z,793.99
2018-01-25T00:15:17.020Z,794
2018-01-25T00:15:21.135Z,794.08
2018-01-25T00:15:25.240Z,794.03
2018-01-25T00:15:29.351Z,794.04
2018-01-25T00:15:33.456Z,794.03
2018-01-25T00:15:37.349Z,794.05
2018-01-25T00:15:41.141Z,794.01
2018-01-25T00:15:44.928Z,794.03
2018-01-25T00:15:48.923Z,794.01
2018-01-25T00:15:52.713Z,793.99
2018-01-25T00:15:56.818Z,794
2018-01-25T00:16:00.820Z,794
2018-01-25T00:16:05.390Z,794.02
2018-01-25T00:16:09.504Z,794
2018-01-25T00:16:13.395Z,794.04
2018-01-25T00:16:17.501Z,794.02
2018-01-25T00:16:21.294Z,794.03
2018-01-25T00:16:25.293Z,794.01
2018-01-25T00:16:29.078Z,794.04
2018-01-25T00:16:32.871Z,794.04
2018-01-25T00:16:36.762Z,794.04
2018-01-25T00:16:40.555Z,794.02
2018-01-25T00:16:44.448Z,793.96
2018-01-25T00:16:48.449Z,794.04
2018-01-25T00:16:52.451Z,794.01
2018-01-25T00:16:56.449Z,794.02
2018-01-25T00:17:00.559Z,794.03
2018-01-25T00:17:04.857Z,794.01
2018-01-25T00:17:08.645Z,794.02
2018-01-25T00:17:12.327Z,794.03
2018-01-25T00:17:16.217Z,794.01
2018-01-25T00:17:20.109Z,793.99
2018-01-25T00:17:23.894Z,794.01
2018-01-25T00:17:28.003Z,794.02
2018-01-25T00:17:31.897Z,794.02
2018-01-25T00:17:35.694Z,794.04
2018-01-25T00:17:39.590Z,794.01
2018-01-25T00:17:43.599Z,794.02
2018-01-25T00:17:47.286Z,794.01
2018-01-25T00:17:51.289Z,793.99
2018-01-25T00:17:55.188Z,794.01
2018-01-25T00:17:59.087Z,793.96
2018-01-25T00:18:02.980Z,793.98
2018-01-25T00:18:06.875Z,793.99
2018-01-25T00:18:10.772Z,794
2018-01-25T00:18:14.666Z,794
2018-01-25T00:18:18.774Z,793.97
2018-01-25T00:18:22.778Z,793.98
2018-01-25T00:18:26.779Z,793.95
2018-01-25T00:18:30.671Z,793.97
2018-01-25T00:18:34.358Z,793.97
2018-01-25T00:18:38.252Z,793.97
2018-01-25T00:18:42.453Z,793.96
2018-01-25T00:18:46.250Z,793.99
2018-01-25T00:18:50.244Z,793.95
2018-01-25T00:18:54.253Z,793.95
2018-01-25T00:18:58.044Z,793.9
2018-01-25T00:19:01.831Z,793.95
2018-01-25T00:19:05.935Z,793.92
2018-01-25T00:19:09.828Z,793.94
2018-01-25T00:19:13.729Z,793.94
2018-01-25T00:19:17.732Z,793.93
2018-01-25T00:19:21.941Z,793.94
2018-01-25T00:19:25.948Z,793.92
2018-01-25T00:19:29.638Z,793.92
2018-01-25T00:19:33.429Z,793.91
2018-01-25T00:19:37.111Z,793.92
2018-01-25T00:19:41.011Z,793.91
2018-01-25T00:19:44.806Z,793.91
2018-01-25T00:19:48.853Z,793.91
2018-01-25T00:19:52.755Z,793.92
2018-01-25T00:19:56.756Z,793.91
2018-01-25T00:20:00.556Z,793.91
2018-01-25T00:20:04.597Z,793.88
2018-01-25T00:20:08.385Z,793.9
2018-01-25T00:20:12.284Z,793.91
2018-01-25T00:20:16.289Z,793.91
2018-01-25T00:20:20.284Z,793.91
2018-01-25T00:20:23.969Z,793.89
2018-01-25T00:20:27.867Z,793.87
2018-01-25T00:20:31.757Z,793.82
2018-01-25T00:20:35.549Z,793.83
2018-01-25T00:20:39.546Z,793.82
2018-01-25T00:20:43.344Z,793.83
2018-01-25T00:20:47.128Z,793.81
2018-01-25T00:20:51.024Z,793.79
2018-01-25T00:20:54.920Z,793.81
2018-01-25T00:20:59.026Z,793.8
2018-01-25T00:21:03.076Z,793.79
2018-01-25T00:21:06.973Z,793.77
2018-01-25T00:21:10.972Z,793.81
2018-01-25T00:21:14.656Z,793.78
2018-01-25T00:21:18.556Z,793.81
2018-01-25T00:21:22.345Z,793.78
2018-01-25T00:21:26.350Z,793.77
2018-01-25T00:21:30.244Z,793.78
2018-01-25T00:21:34.039Z,793.77
2018-01-25T00:21:38.143Z,793.77
2018-01-25T00:21:42.147Z,793.8
2018-01-25T00:21:46.252Z,793.76
2018-01-25T00:21:50.456Z,793.76
2018-01-25T00:21:54.350Z,793.79
2018-01-25T00:21:58.245Z,793.75
2018-01-25T00:22:02.039Z,793.74
2018-01-25T00:22:06.049Z,793.75
2018-01-25T00:22:10.043Z,793.72
2018-01-25T00:22:13.839Z,793.71
2018-01-25T00:22:17.521Z,793.69
2018-01-25T00:22:21.422Z,793.7
2018-01-25T00:22:25.312Z,793.72
2018-01-25T00:22:29.104Z,793.7
2018-01-25T00:22:32.897Z,793.69
2018-01-25T00:22:36.801Z,793.66
2018-01-25T00:22:40.702Z,793.67
2018-01-25T00:22:44.804Z,793.67
2018-01-25T00:22:48.806Z,793.66
2018-01-25T00:22:52.812Z,793.65
2018-01-25T00:22:56.810Z,793.63
2018-01-25T00:23:00.812Z,793.64
2018-01-25T00:23:04.706Z,793.63
2018-01-25T00:23:08.705Z,793.62
2018-01-25T00:23:12.714Z,793.58
2018-01-25T00:23:16.712Z,793.6
2018-01-25T00:23:20.717Z,793.6
2018-01-25T00:23:24.821Z,793.58
2018-01-25T00:23:28.716Z,793.57
2018-01-25T00:23:32.608Z,793.56
2018-01-25T00:23:36.400Z,793.57
2018-01-25T00:23:40.296Z,793.56
2018-01-25T00:23:44.291Z,793.51
2018-01-25T00:23:48.604Z,793.56
2018-01-25T00:23:52.392Z,793.54
2018-01-25T00:23:56.390Z,793.54
2018-01-25T00:24:00.387Z,793.52
2018-01-25T00:24:04.481Z,793.5
2018-01-25T00:24:08.434Z,793.49
2018-01-25T00:24:12.548Z,793.5
2018-01-25T00:24:16.544Z,793.47
2018-01-25T00:24:20.544Z,793.43
2018-01-25T00:24:24.650Z,793.43
2018-01-25T00:24:28.598Z,793.39
2018-01-25T00:24:32.599Z,793.38
2018-01-25T00:24:36.286Z,793.38
2018-01-25T00:24:40.177Z,793.41
2018-01-25T00:24:44.278Z,793.42
2018-01-25T00:24:48.075Z,793.39
2018-01-25T00:24:52.078Z,793.39
2018-01-25T00:24:56.182Z,793.36
2018-01-25T00:25:00.084Z,793.34
2018-01-25T00:25:04.185Z,793.32
2018-01-25T00:25:08.287Z,793.34
2018-01-25T00:25:12.183Z,793.32
2018-01-25T00:25:15.972Z,793.31
2018-01-25T00:25:19.768Z,793.29
2018-01-25T00:25:23.871Z,793.28
2018-01-25T00:25:27.765Z,793.26
2018-01-25T00:25:31.767Z,793.26
2018-01-25T00:25:35.552Z,793.25
2018-01-25T00:25:39.449Z,793.25
2018-01-25T00:25:43.561Z,793.24
2018-01-25T00:25:47.350Z,793.25
2018-01-25T00:25:51.353Z,793.23
2018-01-25T00:25:55.243Z,793.21
2018-01-25T00:25:59.036Z,793.26
2018-01-25T00:26:03.388Z,793.19
2018-01-25T00:26:07.277Z,793.19
2018-01-25T00:26:11.172Z,793.16
2018-01-25T00:26:15.069Z,793.16
2018-01-25T00:26:18.863Z,793.15
2018-01-25T00:26:22.652Z,793.15
2018-01-25T00:26:26.554Z,793.15
2018-01-25T00:26:30.571Z,793.12
2018-01-25T00:26:34.749Z,793.11
2018-01-25T00:26:38.537Z,793.09
2018-01-25T00:26:42.756Z,793.1
2018-01-25T00:26:46.759Z,793.14
2018-01-25T00:26:50.567Z,793.07
2018-01-25T00:26:54.361Z,793.07
2018-01-25T00:26:58.377Z,793.07
2018-01-25T00:27:02.217Z,793.02
2018-01-25T00:27:06.010Z,793.05
2018-01-25T00:27:10.323Z,793.03
2018-01-25T00:27:14.111Z,793.02
2018-01-25T00:27:18.267Z,792.99
2018-01-25T00:27:22.161Z,792.97
2018-01-25T00:27:26.060Z,792.95
2018-01-25T00:27:29.849Z,792.98
2018-01-25T00:27:33.744Z,792.96
2018-01-25T00:27:37.435Z,792.93
2018-01-25T00:27:41.230Z,792.94
2018-01-25T00:27:45.120Z,792.91
2018-01-25T00:27:49.011Z,792.89
2018-01-25T00:27:53.003Z,792.85
2018-01-25T00:27:56.688Z,792.84
2018-01-25T00:28:00.579Z,792.84
2018-01-25T00:28:04.565Z,792.82
2018-01-25T00:28:08.569Z,792.86
2018-01-25T00:28:12.465Z,792.86
2018-01-25T00:28:16.475Z,792.84
2018-01-25T00:28:20.370Z,792.84
2018-01-25T00:28:24.376Z,792.83
2018-01-25T00:28:28.162Z,792.82
2018-01-25T00:28:32.277Z,792.83
2018-01-25T00:28:36.163Z,792.83
2018-01-25T00:28:40.061Z,792.81
2018-01-25T00:28:43.952Z,792.81
2018-01-25T00:28:47.738Z,792.8
2018-01-25T00:28:51.747Z,792.76
2018-01-25T00:28:55.643Z,792.73
2018-01-25T00:28:59.750Z,792.73
2018-01-25T00:29:03.747Z,792.77
2018-01-25T00:29:07.755Z,792.75
2018-01-25T00:29:11.864Z,792.74
2018-01-25T00:29:15.758Z,792.72
2018-01-25T00:29:19.545Z,792.68
2018-01-25T00:29:23.441Z,792.67
2018-01-25T00:29:27.549Z,792.71
2018-01-25T00:29:31.336Z,792.68
2018-01-25T00:29:35.233Z,792.67
2018-01-25T00:29:39.024Z,792.64
2018-01-25T00:29:43.023Z,792.65
2018-01-25T00:29:46.923Z,792.63
2018-01-25T00:29:50.925Z,792.63
2018-01-25T00:29:54.814Z,792.61
2018-01-25T00:29:58.810Z,792.59
2018-01-25T00:30:02.920Z,792.6
2018-01-25T00:30:07.125Z,792.56
2018-01-25T00:30:11.122Z,792.6
2018-01-25T00:30:14.908Z,792.57
2018-01-25T00:30:18.912Z,792.54
2018-01-25T00:30:22.809Z,792.54
2018-01-25T00:30:26.918Z,792.57
2018-01-25T00:30:31.029Z,792.58
2018-01-25T00:30:34.717Z,792.54
2018-01-25T00:30:38.609Z,792.53
2018-01-25T00:30:42.395Z,792.5
2018-01-25T00:30:46.294Z,792.49
2018-01-25T00:30:50.189Z,792.46
2018-01-25T00:30:54.084Z,792.43
2018-01-25T00:30:57.981Z,792.5
2018-01-25T00:31:02.122Z,792.46
2018-01-25T00:31:06.119Z,792.48
2018-01-25T00:31:10.121Z,792.43
2018-01-25T00:31:13.917Z,792.42
2018-01-25T00:31:17.704Z,792.4
2018-01-25T00:31:21.909Z,792.4
2018-01-25T00:31:25.809Z,792.41
2018-01-25T00:31:29.810Z,792.34
2018-01-25T00:31:33.709Z,792.34
2018-01-25T00:31:37.393Z,792.31
2018-01-25T00:31:41.399Z,792.33
2018-01-25T00:31:45.397Z,792.3
2018-01-25T00:31:49.292Z,792.34
2018-01-25T00:31:53.190Z,792.34
2018-01-25T00:31:57.085Z,792.35
2018-01-25T00:32:00.875Z,792.34
2018-01-25T00:32:04.877Z,792.31
2018-01-25T00:32:08.873Z,792.31
2018-01-25T00:32:12.782Z,792.31
2018-01-25T00:32:16.783Z,792.31
2018-01-25T00:32:20.576Z,792.29
2018-01-25T00:32:24.575Z,792.24
2018-01-25T00:32:28.364Z,792.22
2018-01-25T00:32:32.365Z,792.27
2018-01-25T00:32:36.154Z,792.23
2018-01-25T00:32:40.155Z,792.21
2018-01-25T00:32:44.152Z,792.22
2018-01-25T00:32:47.949Z,792.22
2018-01-25T00:32:51.734Z,792.18
2018-01-25T00:32:55.737Z,792.17
2018-01-25T00:32:59.735Z,792.15
2018-01-25T00:33:04.037Z,792.15
2018-01-25T00:33:07.932Z,792.15
2018-01-25T00:33:11.930Z,792.15
2018-01-25T00:33:15.713Z,792.12
2018-01-25T00:33:19.721Z,792.12
2018-01-25T00:33:23.825Z,792.1
2018-01-25T00:33:27.719Z,792.11
2018-01-25T00:33:31.623Z,792.09
2018-01-25T00:33:35.415Z,792.07
2018-01-25T00:33:39.417Z,792.05
2018-01-25T00:33:43.411Z,792.06
2018-01-25T00:33:47.202Z,792.07
2018-01-25T00:33:51.304Z,792.02
2018-01-25T00:33:55.409Z,792.01
2018-01-25T00:33:59.407Z,791.97
2018-01-25T00:34:03.422Z,792.03
2018-01-25T00:34:07.424Z,792.02
2018-01-25T00:34:11.531Z,792.03
2018-01-25T00:34:15.636Z,791.93
2018-01-25T00:34:19.737Z,791.93
2018-01-25T00:34:23.730Z,791.95
2018-01-25T00:34:27.414Z,791.95
2018-01-25T00:34:31.329Z,791.95
2018-01-25T00:34:35.226Z,791.94
2018-01-25T00:34:39.225Z,791.95
2018-01-25T00:34:43.272Z,791.91
2018-01-25T00:34:47.059Z,791.92
2018-01-25T00:34:50.849Z,791.91
2018-01-25T00:34:54.745Z,791.9
2018-01-25T00:34:58.532Z,791.91
2018-01-25T00:35:02.376Z,791.85
2018-01-25T00:35:06.166Z,791.87
2018-01-25T00:35:09.965Z,791.84
2018-01-25T00:35:13.961Z,791.86
2018-01-25T00:35:17.966Z,791.86
2018-01-25T00:35:21.750Z,791.86
2018-01-25T00:35:25.537Z,791.86
2018-01-25T00:35:29.747Z,791.82
2018-01-25T00:35:33.841Z,791.82
2018-01-25T00:35:37.633Z,791.8
2018-01-25T00:35:41.534Z,791.79
2018-01-25T00:35:45.434Z,791.77
2018-01-25T00:35:49.330Z,791.78
2018-01-25T00:35:53.228Z,791.74
2018-01-25T00:35:57.025Z,791.73
2018-01-25T00:36:00.921Z,791.78
2018-01-25T00:36:05.176Z,791.72
2018-01-25T00:36:09.179Z,791.73
2018-01-25T00:36:13.077Z,791.71
2018-01-25T00:36:16.965Z,791.66
2018-01-25T00:36:20.855Z,791.67
2018-01-25T00:36:24.858Z,791.65
2018-01-25T00:36:28.966Z,791.62
2018-01-25T00:36:33.072Z,791.62
2018-01-25T00:36:37.182Z,791.62
2018-01-25T00:36:40.972Z,791.58
2018-01-25T00:36:44.767Z,791.59
2018-01-25T00:36:48.558Z,791.66
2018-01-25T00:36:52.449Z,791.64
2018-01-25T00:36:56.447Z,791.63
2018-01-25T00:37:00.344Z,791.61
2018-01-25T00:37:04.445Z,791.59
2018-01-25T00:37:08.362Z,791.61
2018-01-25T00:37:12.256Z,791.57
2018-01-25T00:37:15.940Z,791.57
2018-01-25T00:37:19.832Z,791.54
2018-01-25T00:37:23.620Z,791.55
2018-01-25T00:37:27.509Z,791.54
2018-01-25T00:37:31.300Z,791.51
2018-01-25T00:37:35.196Z,791.5
2018-01-25T00:37:39.095Z,791.52
2018-01-25T00:37:42.775Z,791.53
2018-01-25T00:37:46.566Z,791.52
2018-01-25T00:37:50.353Z,791.48
2018-01-25T00:37:54.139Z,791.43
2018-01-25T00:37:58.033Z,791.46
2018-01-25T00:38:02.082Z,791.4
2018-01-25T00:38:05.990Z,791.39
2018-01-25T00:38:09.776Z,791.43
2018-01-25T00:38:13.772Z,791.41
2018-01-25T00:38:17.670Z,791.41
2018-01-25T00:38:21.561Z,791.45
2018-01-25T00:38:25.767Z,791.44
2018-01-25T00:38:29.767Z,791.42
2018-01-25T00:38:33.558Z,791.42
2018-01-25T00:38:37.449Z,791.41
2018-01-25T00:38:41.344Z,791.39
2018-01-25T00:38:45.343Z,791.4
2018-01-25T00:38:49.448Z,791.4
2018-01-25T00:38:53.550Z,791.37
2018-01-25T00:38:57.441Z,791.38
2018-01-25T00:39:01.390Z,791.37
2018-01-25T00:39:05.392Z,791.35
2018-01-25T00:39:09.500Z,791.34
2018-01-25T00:39:13.287Z,791.27
2018-01-25T00:39:17.394Z,791.31
2018-01-25T00:39:21.293Z,791.3
2018-01-25T00:39:25.285Z,791.29
2018-01-25T00:39:29.183Z,791.27
2018-01-25T00:39:33.184Z,791.28
2018-01-25T00:39:37.074Z,791.24
2018-01-25T00:39:41.078Z,791.28
2018-01-25T00:39:44.977Z,791.25
2018-01-25T00:39:48.760Z,791.29
2018-01-25T00:39:52.862Z,791.25
2018-01-25T00:39:56.545Z,791.27
2018-01-25T00:40:00.438Z,791.23
2018-01-25T00:40:04.335Z,791.23
2018-01-25T00:40:08.339Z,791.23
2018-01-25T00:40:12.235Z,791.21
2018-01-25T00:40:16.129Z,791.19
2018-01-25T00:40:20.145Z,791.18
2018-01-25T00:40:24.356Z,791.21
2018-01-25T00:40:28.254Z,791.2
2018-01-25T00:40:32.372Z,791.21
2018-01-25T00:40:36.052Z,791.2
2018-01-25T00:40:39.839Z,791.17
2018-01-25T00:40:43.940Z,791.19
2018-01-25T00:40:47.725Z,791.17
2018-01-25T00:40:51.829Z,791.09
2018-01-25T00:40:55.723Z,791.11
2018-01-25T00:40:59.614Z,791.15
2018-01-25T00:41:03.555Z,791.11
2018-01-25T00:41:07.441Z,791.13
2018-01-25T00:41:11.554Z,791.12
2018-01-25T00:41:15.559Z,791.12
2018-01-25T00:41:19.244Z,791.09
2018-01-25T00:41:23.034Z,791.09
2018-01-25T00:41:27.027Z,791.08
2018-01-25T00:41:30.816Z,791.08
2018-01-25T00:41:34.918Z,791.08
2018-01-25T00:41:38.712Z,791.08
2018-01-25T00:41:42.602Z,791.04
2018-01-25T00:41:46.495Z,791.04
2018-01-25T00:41:50.595Z,791.02
2018-01-25T00:41:54.493Z,791.04
2018-01-25T00:41:58.501Z,791.05
2018-01-25T00:42:02.703Z,791.03
2018-01-25T00:42:06.490Z,791.01
2018-01-25T00:42:10.705Z,791.01
2018-01-25T00:42:14.807Z,791.01
2018-01-25T00:42:18.697Z,791
2018-01-25T00:42:22.694Z,790.97
2018-01-25T00:42:26.583Z,790.98
2018-01-25T00:42:30.793Z,790.99
2018-01-25T00:42:34.583Z,790.98
2018-01-25T00:42:38.483Z,790.97
2018-01-25T00:42:42.270Z,790.98
2018-01-25T00:42:46.266Z,790.98
2018-01-25T00:42:50.158Z,790.95
2018-01-25T00:42:54.157Z,790.96
2018-01-25T00:42:58.055Z,790.95
2018-01-25T00:43:01.949Z,790.93
2018-01-25T00:43:06.051Z,790.97
2018-01-25T00:43:10.260Z,790.92
2018-01-25T00:43:14.256Z,790.92
2018-01-25T00:43:18.148Z,790.91
2018-01-25T00:43:21.837Z,790.91
2018-01-25T00:43:25.735Z,790.91
2018-01-25T00:43:29.737Z,790.92
2018-01-25T00:43:33.736Z,790.91
2018-01-25T00:43:37.635Z,790.9
2018-01-25T00:43:41.524Z,790.89
2018-01-25T00:43:45.418Z,790.87
2018-01-25T00:43:49.424Z,790.88
2018-01-25T00:43:53.319Z,790.85
2018-01-25T00:43:57.106Z,790.85
2018-01-25T00:44:00.999Z,790.83
2018-01-25T00:44:04.892Z,790.85
2018-01-25T00:44:08.788Z,790.87
2018-01-25T00:44:12.832Z,790.83
2018-01-25T00:44:16.624Z,790.82
2018-01-25T00:44:20.512Z,790.84
2018-01-25T00:44:24.763Z,790.84
2018-01-25T00:44:28.867Z,790.84
2018-01-25T00:44:32.765Z,790.83
2018-01-25T00:44:36.554Z,790.79
2018-01-25T00:44:40.597Z,790.81
2018-01-25T00:44:44.596Z,790.85
2018-01-25T00:44:48.500Z,790.8
2018-01-25T00:44:52.396Z,790.82
2018-01-25T00:44:56.291Z,790.8
2018-01-25T00:45:00.089Z,790.8
2018-01-25T00:45:04.025Z,790.79
2018-01-25T00:45:07.816Z,790.78
2018-01-25T00:45:11.915Z,790.81
2018-01-25T00:45:15.806Z,790.81
2018-01-25T00:45:19.811Z,790.8
2018-01-25T00:45:23.809Z,790.8
2018-01-25T00:45:27.813Z,790.79
2018-01-25T00:45:31.600Z,790.77
2018-01-25T00:45:35.389Z,790.79
2018-01-25T00:45:39.284Z,790.8
2018-01-25T00:45:43.288Z,790.78
2018-01-25T00:45:47.078Z,790.76
2018-01-25T00:45:50.761Z,790.78
2018-01-25T00:45:54.767Z,790.75
2018-01-25T00:45:58.668Z,790.76
2018-01-25T00:46:02.713Z,790.73
2018-01-25T00:46:06.603Z,790.73
2018-01-25T00:46:10.503Z,790.71
2018-01-25T00:46:14.396Z,790.74
2018-01-25T00:46:18.288Z,790.74
2018-01-25T00:46:22.180Z,790.75
2018-01-25T00:46:26.396Z,790.75
2018-01-25T00:46:30.395Z,790.75
2018-01-25T00:46:34.287Z,790.74
2018-01-25T00:46:38.185Z,790.74
2018-01-25T00:46:42.185Z,790.72
2018-01-25T00:46:46.180Z,790.75
2018-01-25T00:46:49.966Z,790.72
2018-01-25T00:46:53.758Z,790.71
2018-01-25T00:46:57.863Z,790.66
2018-01-25T00:47:02.118Z,790.67
2018-01-25T00:47:06.013Z,790.71
2018-01-25T00:47:10.227Z,790.74
2018-01-25T00:47:14.123Z,790.73
2018-01-25T00:47:18.016Z,790.75
2018-01-25T00:47:22.226Z,790.74
2018-01-25T00:47:26.124Z,790.76
2018-01-25T00:47:30.122Z,790.76
2018-01-25T00:47:34.119Z,790.71
2018-01-25T00:47:38.235Z,790.72
2018-01-25T00:47:42.027Z,790.72
2018-01-25T00:47:45.921Z,790.74
2018-01-25T00:47:49.919Z,790.71
2018-01-25T00:47:53.812Z,790.71
2018-01-25T00:47:57.816Z,790.66
2018-01-25T00:48:01.708Z,790.67
2018-01-25T00:48:05.611Z,790.7
2018-01-25T00:48:09.717Z,790.71
2018-01-25T00:48:13.820Z,790.68
2018-01-25T00:48:17.824Z,790.7
2018-01-25T00:48:21.934Z,790.67
2018-01-25T00:48:25.725Z,790.68
2018-01-25T00:48:29.726Z,790.7
2018-01-25T00:48:33.515Z,790.68
2018-01-25T00:48:37.405Z,790.7
2018-01-25T00:48:41.297Z,790.68
2018-01-25T00:48:45.199Z,790.68
2018-01-25T00:48:49.202Z,790.66
2018-01-25T00:48:53.201Z,790.68
2018-01-25T00:48:57.093Z,790.67
2018-01-25T00:49:00.989Z,790.68
2018-01-25T00:49:04.989Z,790.67
2018-01-25T00:49:08.991Z,790.66
2018-01-25T00:49:12.778Z,790.65
2018-01-25T00:49:16.783Z,790.68
2018-01-25T00:49:20.781Z,790.66